Time;durP1;ratioP1;P1;durP2;ratioP2;P2;SDS_P1;SDS_P2;PMS_P1;PMS_P2;Temp;Humidity;BMP_temperature;BMP_pressure;BME280_temperature;BME280_humidity;BME280_pressure;Samples;Min_cycle;Max_cycle;Signal;HPM_P1;HPM_P2
2022/05/08 00:00:02;;;;;;;6.43;3.45;;;;;18.40;102568.00;;;;5054020;28;20213;-79
2022/05/08 00:02:29;;;;;;;8.30;3.05;;;;;18.30;102564.00;;;;5059861;28;20200;-78
2022/05/08 00:04:56;;;;;;;6.00;3.05;;;;;18.30;102564.00;;;;5061342;28;20249;-79
2022/05/08 00:07:24;;;;;;;6.20;3.35;;;;;18.20;102557.00;;;;5047940;28;20191;-78
2022/05/08 00:09:51;;;;;;;7.25;2.97;;;;;18.20;102561.00;;;;5053081;28;20253;-79
2022/05/08 00:12:20;;;;;;;4.68;2.85;;;;;18.20;102561.00;;;;5048989;28;20253;-78
2022/05/08 00:14:47;;;;;;;3.50;2.72;;;;;18.10;102556.00;;;;5061314;28;20202;-78
2022/05/08 00:17:14;;;;;;;5.68;3.38;;;;;18.10;102559.00;;;;5054264;28;20192;-79
2022/05/08 00:19:43;;;;;;;4.80;3.15;;;;;18.10;102556.00;;;;5047877;28;20203;-79
2022/05/08 00:22:10;;;;;;;4.40;3.08;;;;;18.10;102564.00;;;;5049061;28;20242;-79
2022/05/08 00:24:38;;;;;;;4.78;2.85;;;;;18.00;102561.00;;;;5049330;28;20203;-77
2022/05/08 00:27:05;;;;;;;5.15;2.97;;;;;18.00;102566.00;;;;5060872;28;20222;-78
2022/05/08 00:29:34;;;;;;;3.67;2.45;;;;;18.00;102562.00;;;;5044385;28;20200;-80
2022/05/08 00:32:02;;;;;;;4.60;3.10;;;;;18.00;102563.00;;;;5063420;28;20199;-78
2022/05/08 00:34:29;;;;;;;8.93;3.33;;;;;17.90;102558.00;;;;5057588;28;20242;-78
2022/05/08 00:36:56;;;;;;;4.60;3.30;;;;;17.90;102558.00;;;;5046238;28;20266;-79
2022/05/08 00:39:23;;;;;;;6.18;3.28;;;;;17.90;102558.00;;;;5047289;28;20215;-78
2022/05/08 00:41:51;;;;;;;4.68;3.13;;;;;17.90;102560.00;;;;5061548;28;20194;-79
2022/05/08 00:44:18;;;;;;;4.00;2.75;;;;;17.90;102561.00;;;;5048501;28;20199;-77
2022/05/08 00:46:48;;;;;;;7.18;3.15;;;;;17.90;102559.00;;;;5060183;28;20223;-78
2022/05/08 00:49:16;;;;;;;4.55;3.10;;;;;17.80;102556.00;;;;5050375;28;20215;-77
2022/05/08 00:51:47;;;;;;;5.57;3.10;;;;;17.80;102556.00;;;;5059441;28;20732;-78
2022/05/08 00:54:14;;;;;;;5.63;2.47;;;;;17.80;102559.00;;;;5059095;28;20203;-78
2022/05/08 00:56:42;;;;;;;6.25;2.80;;;;;17.80;102554.00;;;;5061564;28;20261;-78
2022/05/08 00:59:10;;;;;;;4.38;2.72;;;;;17.80;102549.00;;;;5044807;28;20207;-78
2022/05/08 01:01:37;;;;;;;5.60;3.28;;;;;17.80;102565.00;;;;5053844;28;20203;-78
2022/05/08 01:04:06;;;;;;;6.72;2.78;;;;;17.80;102556.00;;;;5066840;28;20256;-79
2022/05/08 01:06:34;;;;;;;5.88;3.42;;;;;17.80;102555.00;;;;5057901;28;20265;-79
2022/05/08 01:09:01;;;;;;;6.78;2.65;;;;;17.80;102554.00;;;;5047455;28;20594;-79
2022/05/08 01:11:29;;;;;;;5.85;3.63;;;;;17.80;102554.00;;;;5047692;28;20756;-79
2022/05/08 01:13:56;;;;;;;4.78;3.15;;;;;17.80;102562.00;;;;5048336;28;20191;-78
2022/05/08 01:16:24;;;;;;;6.63;2.72;;;;;17.80;102565.00;;;;5046961;28;21056;-80
2022/05/08 01:18:51;;;;;;;4.88;2.80;;;;;17.80;102561.00;;;;5054532;28;20210;-78
2022/05/08 01:21:24;;;;;;;10.18;3.10;;;;;17.80;102563.00;;;;5065973;28;20206;-78
2022/05/08 01:23:52;;;;;;;5.13;3.00;;;;;17.70;102563.00;;;;5054700;28;20582;-80
2022/05/08 01:26:23;;;;;;;9.25;3.50;;;;;17.70;102565.00;;;;5049848;28;20223;-79
2022/05/08 01:28:50;;;;;;;9.50;3.50;;;;;17.70;102567.00;;;;5051252;28;20199;-78
2022/05/08 01:31:18;;;;;;;5.00;2.35;;;;;17.70;102567.00;;;;5051003;28;20200;-77
2022/05/08 01:33:45;;;;;;;7.07;3.53;;;;;17.70;102568.00;;;;5050797;28;20207;-80
2022/05/08 01:36:12;;;;;;;7.78;3.03;;;;;17.70;102566.00;;;;5058698;28;20261;-77
2022/05/08 01:38:39;;;;;;;6.95;2.58;;;;;17.70;102572.00;;;;5051284;28;20616;-77
2022/05/08 01:41:08;;;;;;;7.35;2.30;;;;;17.70;102570.00;;;;5053462;28;20203;-77
2022/05/08 01:43:37;;;;;;;9.40;2.97;;;;;17.70;102578.00;;;;5056521;28;20207;-77
2022/05/08 01:46:05;;;;;;;6.20;2.42;;;;;17.70;102577.00;;;;5050987;28;20231;-77
2022/05/08 01:48:32;;;;;;;5.97;2.53;;;;;17.70;102577.00;;;;5061008;28;20680;-77
2022/05/08 01:51:01;;;;;;;6.50;2.45;;;;;17.60;102577.00;;;;5060484;28;20199;-77
2022/05/08 01:53:31;;;;;;;5.60;2.28;;;;;17.60;102575.00;;;;5064416;28;20202;-77
2022/05/08 01:55:59;;;;;;;4.43;2.22;;;;;17.60;102571.00;;;;5068998;28;20680;-78
2022/05/08 01:58:29;;;;;;;6.82;2.10;;;;;17.50;102572.00;;;;5069797;28;20199;-77
2022/05/08 02:00:58;;;;;;;6.80;2.58;;;;;17.50;102580.00;;;;5069257;28;20705;-77
2022/05/08 02:03:26;;;;;;;8.13;2.10;;;;;17.50;102582.00;;;;5051107;28;20204;-77
2022/05/08 02:05:54;;;;;;;7.60;2.35;;;;;17.50;102586.00;;;;5050444;28;20219;-77
2022/05/08 02:08:21;;;;;;;4.13;1.90;;;;;17.50;102588.00;;;;5057054;28;20222;-78
2022/05/08 02:10:49;;;;;;;7.03;2.25;;;;;17.40;102586.00;;;;5065471;28;20203;-78
2022/05/08 02:13:16;;;;;;;15.15;1.95;;;;;17.40;102584.00;;;;5066031;28;20228;-78
2022/05/08 02:15:44;;;;;;;10.75;2.20;;;;;17.40;102585.00;;;;5049957;28;20196;-78
2022/05/08 02:18:12;;;;;;;4.50;2.05;;;;;17.40;102584.00;;;;5065072;28;20195;-77
2022/05/08 02:20:40;;;;;;;8.98;2.17;;;;;17.30;102588.00;;;;5057233;28;20203;-78
2022/05/08 02:23:07;;;;;;;6.70;1.80;;;;;17.30;102579.00;;;;5050419;28;20215;-78
2022/05/08 02:25:34;;;;;;;7.80;1.98;;;;;17.30;102581.00;;;;5050123;28;20638;-77
2022/05/08 02:28:02;;;;;;;9.10;2.03;;;;;17.30;102581.00;;;;5066718;28;20199;-78
2022/05/08 02:30:31;;;;;;;9.85;2.03;;;;;17.20;102588.00;;;;5058133;28;20214;-78
2022/05/08 02:33:00;;;;;;;6.18;1.70;;;;;17.20;102585.00;;;;5050769;28;20203;-77
2022/05/08 02:35:27;;;;;;;7.45;1.77;;;;;17.10;102586.00;;;;5049802;28;20207;-78
2022/05/08 02:37:56;;;;;;;5.75;1.75;;;;;17.10;102579.00;;;;5049092;28;20195;-78
2022/05/08 02:40:24;;;;;;;8.35;2.03;;;;;17.10;102589.00;;;;5049842;28;20562;-78
2022/05/08 02:42:52;;;;;;;7.88;1.95;;;;;17.00;102588.00;;;;5061991;28;20202;-78
2022/05/08 02:45:19;;;;;;;6.57;1.60;;;;;17.00;102590.00;;;;5056745;28;20203;-78
2022/05/08 02:47:47;;;;;;;7.15;1.95;;;;;17.00;102598.00;;;;5049254;28;20263;-77
2022/05/08 02:50:15;;;;;;;9.90;1.88;;;;;16.90;102595.00;;;;5048596;28;20199;-77
2022/05/08 02:52:43;;;;;;;11.30;2.15;;;;;16.90;102596.00;;;;5069118;28;20183;-78
2022/05/08 03:00:44;;;;;;;8.95;1.52;;;;;16.80;102595.00;;;;5050083;28;20708;-78
2022/05/08 03:03:12;;;;;;;5.32;1.35;;;;;16.70;102588.00;;;;5050088;28;20209;-78
2022/05/08 03:05:43;;;;;;;5.28;1.27;;;;;16.70;102595.00;;;;5056736;28;20195;-77
2022/05/08 03:08:14;;;;;;;7.35;1.75;;;;;16.70;102603.00;;;;5064231;28;20274;-79
2022/05/08 03:13:27;;;;;;;4.50;1.10;;;;;16.60;102600.00;;;;5064894;28;20206;-78
2022/05/08 03:15:55;;;;;;;7.15;1.33;;;;;16.60;102598.00;;;;5049597;28;20204;-78
2022/05/08 03:18:22;;;;;;;8.55;1.33;;;;;16.50;102597.00;;;;5060626;28;20257;-78
2022/05/08 03:20:51;;;;;;;5.28;1.40;;;;;16.50;102602.00;;;;5054844;28;20235;-79
2022/05/08 03:23:18;;;;;;;6.22;1.95;;;;;16.50;102602.00;;;;5051996;28;20715;-77
2022/05/08 03:25:46;;;;;;;8.68;2.08;;;;;16.50;102598.00;;;;5051108;28;20203;-78
2022/05/08 03:28:14;;;;;;;8.70;1.80;;;;;16.40;102604.00;;;;5048265;28;20199;-77
2022/05/08 03:30:42;;;;;;;7.75;1.55;;;;;16.40;102602.00;;;;5049500;28;20191;-77
2022/05/08 03:33:10;;;;;;;7.45;2.10;;;;;16.40;102597.00;;;;5048941;28;20241;-77
2022/05/08 03:35:38;;;;;;;8.90;1.80;;;;;16.40;102598.00;;;;5048828;28;20219;-77
2022/05/08 03:38:07;;;;;;;11.65;2.10;;;;;16.30;102595.00;;;;5048488;28;20195;-77
2022/05/08 03:40:36;;;;;;;6.45;1.40;;;;;16.30;102602.00;;;;5048002;28;20203;-77
2022/05/08 03:43:04;;;;;;;6.50;2.05;;;;;16.30;102606.00;;;;5048680;28;20250;-78
2022/05/08 03:45:31;;;;;;;8.93;1.48;;;;;16.30;102610.00;;;;5048009;28;20204;-78
2022/05/08 03:47:59;;;;;;;9.32;1.60;;;;;16.30;102612.00;;;;5050274;28;20234;-77
2022/05/08 03:50:27;;;;;;;6.65;1.90;;;;;16.30;102605.00;;;;5048990;28;20299;-78
2022/05/08 03:52:55;;;;;;;6.40;1.77;;;;;16.30;102615.00;;;;5049096;28;20987;-78
2022/05/08 03:55:24;;;;;;;4.25;1.60;;;;;16.30;102613.00;;;;5049970;28;20588;-77
2022/05/08 03:57:52;;;;;;;5.75;1.63;;;;;16.30;102618.00;;;;5068313;28;20214;-78
2022/05/08 04:00:19;;;;;;;6.00;1.55;;;;;16.30;102614.00;;;;5053453;28;20206;-77
2022/05/08 04:02:47;;;;;;;7.40;1.65;;;;;16.30;102625.00;;;;5067022;28;20225;-77
2022/05/08 04:05:15;;;;;;;5.93;1.95;;;;;16.30;102617.00;;;;5055657;28;20199;-78
2022/05/08 04:07:42;;;;;;;8.68;1.65;;;;;16.20;102617.00;;;;5048817;28;20289;-78
2022/05/08 04:10:10;;;;;;;7.22;1.38;;;;;16.20;102618.00;;;;5060322;28;20287;-78
2022/05/08 04:12:39;;;;;;;6.20;1.25;;;;;16.20;102626.00;;;;5056531;28;20195;-78
2022/05/08 04:16:15;;;;;;;7.10;1.50;;;;;16.20;102627.00;;;;5068728;28;20582;-78
2022/05/08 04:17:57;;;;;;;6.22;1.75;;;;;16.20;102626.00;;;;5066959;28;20194;-79
2022/05/08 04:20:24;;;;;;;5.80;1.58;;;;;16.10;102630.00;;;;5057545;28;20191;-78
2022/05/08 04:25:36;;;;;;;7.07;1.92;;;;;16.10;102632.00;;;;5056111;28;20280;-78
2022/05/08 04:28:05;;;;;;;15.25;3.03;;;;;16.10;102626.00;;;;5047992;28;20234;-78
2022/05/08 04:30:33;;;;;;;7.10;1.70;;;;;16.10;102629.00;;;;5047431;28;20261;-78
2022/05/08 04:33:00;;;;;;;5.25;1.45;;;;;16.10;102628.00;;;;5048078;28;21196;-78
2022/05/08 04:35:27;;;;;;;4.70;1.55;;;;;16.10;102642.00;;;;5053522;28;20203;-77
2022/05/08 04:37:55;;;;;;;5.03;1.42;;;;;16.00;102640.00;;;;5052166;28;20199;-78
2022/05/08 04:40:23;;;;;;;6.18;1.42;;;;;16.00;102643.00;;;;5048243;28;20608;-78
2022/05/08 04:42:50;;;;;;;9.23;2.03;;;;;16.00;102640.00;;;;5048969;28;20689;-78
2022/05/08 04:45:19;;;;;;;5.65;1.50;;;;;16.00;102650.00;;;;5061021;28;20198;-78
2022/05/08 04:47:46;;;;;;;8.00;2.03;;;;;16.00;102646.00;;;;5067604;28;20230;-78
2022/05/08 04:50:13;;;;;;;7.10;1.42;;;;;16.00;102645.00;;;;5066686;28;20210;-78
2022/05/08 04:52:41;;;;;;;8.57;1.85;;;;;15.90;102648.00;;;;5047802;28;20200;-77
2022/05/08 04:55:09;;;;;;;8.25;1.70;;;;;15.90;102652.00;;;;5049032;28;20249;-78
2022/05/08 04:57:36;;;;;;;7.47;1.70;;;;;15.90;102654.00;;;;5047266;28;20235;-79
2022/05/08 05:00:05;;;;;;;3.70;1.50;;;;;15.90;102656.00;;;;5046309;28;21026;-78
2022/05/08 05:02:34;;;;;;;12.88;1.90;;;;;15.90;102662.00;;;;5050832;28;20192;-78
2022/05/08 05:05:02;;;;;;;6.63;1.75;;;;;15.90;102665.00;;;;5063342;28;20318;-78
2022/05/08 05:07:30;;;;;;;5.78;1.50;;;;;15.90;102670.00;;;;5070374;28;20222;-78
2022/05/08 05:09:57;;;;;;;9.15;2.00;;;;;15.80;102670.00;;;;5058143;28;20226;-77
2022/05/08 05:12:24;;;;;;;7.88;1.60;;;;;15.80;102669.00;;;;5051123;28;20662;-77
2022/05/08 05:14:52;;;;;;;7.20;1.55;;;;;15.90;102672.00;;;;5056543;28;20198;-77
2022/05/08 05:17:19;;;;;;;5.55;1.80;;;;;15.90;102670.00;;;;5061321;28;20232;-77
2022/05/08 05:19:48;;;;;;;6.70;1.83;;;;;15.90;102675.00;;;;5067167;28;20241;-77
2022/05/08 05:22:15;;;;;;;6.20;1.90;;;;;15.90;102674.00;;;;5051183;28;20910;-77
2022/05/08 05:24:43;;;;;;;8.57;2.63;;;;;15.90;102683.00;;;;5055920;28;20241;-78
2022/05/08 05:27:11;;;;;;;7.15;2.00;;;;;16.00;102677.00;;;;5059378;28;20262;-77
2022/05/08 05:29:38;;;;;;;7.28;1.75;;;;;16.00;102679.00;;;;5063113;28;20204;-78
2022/05/08 05:32:06;;;;;;;9.15;1.92;;;;;16.10;102679.00;;;;5053119;28;20199;-78
2022/05/08 05:34:33;;;;;;;6.82;1.55;;;;;16.10;102688.00;;;;5056033;28;20718;-77
2022/05/08 05:37:02;;;;;;;5.35;1.85;;;;;16.10;102693.00;;;;5070334;28;20234;-77
2022/05/08 05:39:29;;;;;;;7.95;1.45;;;;;16.20;102691.00;;;;5070281;28;20929;-78
2022/05/08 05:41:57;;;;;;;6.03;1.65;;;;;16.20;102691.00;;;;5054711;28;20657;-77
2022/05/08 05:44:26;;;;;;;12.85;2.33;;;;;16.20;102691.00;;;;5054624;28;20187;-79
2022/05/08 05:49:39;;;;;;;14.32;2.35;;;;;16.20;102694.00;;;;5069850;28;20727;-76
2022/05/08 05:52:08;;;;;;;6.78;2.00;;;;;16.20;102702.00;;;;5051967;28;20204;-78
2022/05/08 05:54:36;;;;;;;12.75;2.05;;;;;16.30;102702.00;;;;5065745;28;20282;-77
2022/05/08 05:57:05;;;;;;;3.88;1.83;;;;;16.30;102703.00;;;;5060762;28;20199;-79
2022/05/08 05:59:33;;;;;;;4.43;1.40;;;;;16.40;102708.00;;;;5070587;28;20230;-79
2022/05/08 06:02:00;;;;;;;8.20;1.77;;;;;16.50;102710.00;;;;5064810;28;20214;-79
2022/05/08 06:04:27;;;;;;;9.88;1.60;;;;;16.50;102703.00;;;;5071878;28;20218;-77
2022/05/08 06:06:55;;;;;;;7.70;1.90;;;;;16.50;102715.00;;;;5054755;28;20481;-79
2022/05/08 06:09:24;;;;;;;4.63;1.70;;;;;16.50;102718.00;;;;5060214;28;20490;-79
2022/05/08 06:11:52;;;;;;;7.50;1.85;;;;;16.60;102728.00;;;;5051031;28;20196;-77
2022/05/08 06:14:19;;;;;;;6.47;1.67;;;;;16.60;102717.00;;;;5052800;28;20203;-78
2022/05/08 06:16:47;;;;;;;7.68;1.38;;;;;16.60;102719.00;;;;5068248;28;20252;-77
2022/05/08 06:19:14;;;;;;;9.88;1.73;;;;;16.70;102726.00;;;;5057846;28;20214;-77
2022/05/08 06:21:41;;;;;;;5.45;1.48;;;;;16.70;102723.00;;;;5049257;28;20230;-77
2022/05/08 06:24:09;;;;;;;7.55;1.42;;;;;16.80;102729.00;;;;5057433;28;20225;-77
2022/05/08 06:26:38;;;;;;;7.38;1.70;;;;;16.80;102728.00;;;;5049473;28;20207;-77
2022/05/08 06:29:05;;;;;;;7.57;1.63;;;;;16.90;102724.00;;;;5058981;28;20746;-77
2022/05/08 06:31:33;;;;;;;7.43;1.65;;;;;17.00;102722.00;;;;5069291;28;20199;-78
2022/05/08 06:34:00;;;;;;;8.25;1.48;;;;;17.00;102722.00;;;;5061237;28;20235;-78
2022/05/08 06:36:27;;;;;;;8.55;1.80;;;;;17.10;102724.00;;;;5056187;28;20223;-78
2022/05/08 06:38:54;;;;;;;5.90;1.58;;;;;17.20;102733.00;;;;5058332;28;20207;-78
2022/05/08 06:41:22;;;;;;;7.93;2.10;;;;;17.20;102729.00;;;;5054102;28;20253;-78
2022/05/08 06:43:51;;;;;;;8.30;1.63;;;;;17.30;102730.00;;;;5060104;28;20207;-78
2022/05/08 06:46:18;;;;;;;5.35;1.83;;;;;17.40;102728.00;;;;5062144;28;20211;-78
2022/05/08 06:48:47;;;;;;;4.90;1.25;;;;;17.40;102730.00;;;;5062153;28;20233;-79
2022/05/08 06:51:14;;;;;;;6.60;1.48;;;;;17.40;102735.00;;;;5059203;28;20206;-79
2022/05/08 06:53:43;;;;;;;4.65;1.40;;;;;17.50;102743.00;;;;5056669;28;20192;-79
2022/05/08 06:56:13;;;;;;;8.75;1.55;;;;;17.60;102741.00;;;;5060755;28;20684;-79
2022/05/08 07:01:38;;;;;;;6.75;1.58;;;;;17.70;102738.00;;;;5056518;28;20191;-79
2022/05/08 07:04:07;;;;;;;5.95;1.80;;;;;17.70;102746.00;;;;5056752;28;20200;-79
2022/05/08 07:06:35;;;;;;;6.88;1.00;;;;;17.80;102742.00;;;;5056229;28;20244;-79
2022/05/08 07:09:03;;;;;;;4.38;1.10;;;;;17.80;102739.00;;;;5058663;28;20237;-79
2022/05/08 07:11:31;;;;;;;2.75;1.13;;;;;17.90;102742.00;;;;5060854;28;20272;-78
2022/05/08 07:13:58;;;;;;;4.68;1.35;;;;;18.00;102744.00;;;;5059624;28;20285;-79
2022/05/08 07:16:28;;;;;;;4.75;1.42;;;;;18.00;102744.00;;;;5058278;28;20199;-79
2022/05/08 07:19:00;;;;;;;3.45;1.10;;;;;18.10;102747.00;;;;5046762;28;20196;-80
2022/05/08 07:21:28;;;;;;;8.57;1.98;;;;;18.20;102750.00;;;;5054763;28;20214;-78
2022/05/08 07:23:56;;;;;;;5.78;1.42;;;;;18.30;102748.00;;;;5060008;28;20200;-80
2022/05/08 07:26:23;;;;;;;6.22;1.65;;;;;18.30;102749.00;;;;5057213;28;20195;-79
2022/05/08 07:28:53;;;;;;;5.60;1.15;;;;;18.40;102749.00;;;;5057141;28;20254;-78
2022/05/08 07:31:21;;;;;;;4.53;1.38;;;;;18.40;102751.00;;;;5056670;28;20719;-79
2022/05/08 07:36:12;;;;;;;8.13;1.15;;;;;18.50;102751.00;;;;5057173;28;20196;-78
2022/05/08 07:36:36;;;;;;;8.80;1.58;;;;;18.50;102751.00;;;;5058714;28;20227;-78
2022/05/08 07:39:04;;;;;;;4.10;1.42;;;;;18.60;102760.00;;;;5059222;28;20244;-79
2022/05/08 07:41:31;;;;;;;4.60;0.77;;;;;18.70;102762.00;;;;5059835;28;20226;-78
2022/05/08 07:43:58;;;;;;;3.60;1.35;;;;;18.80;102764.00;;;;5049769;28;20191;-79
2022/05/08 07:46:26;;;;;;;7.68;1.42;;;;;18.90;102763.00;;;;5051018;28;20243;-78
2022/05/08 07:48:54;;;;;;;6.60;1.40;;;;;19.00;102771.00;;;;5048768;28;20313;-80
2022/05/08 07:51:22;;;;;;;8.00;1.52;;;;;19.10;102766.00;;;;5063213;28;20195;-78
2022/05/08 07:53:49;;;;;;;3.85;1.20;;;;;19.20;102763.00;;;;5064089;28;20421;-79
2022/05/08 07:56:16;;;;;;;5.97;1.73;;;;;19.30;102761.00;;;;5068072;28;20210;-79
2022/05/08 07:58:44;;;;;;;5.93;1.10;;;;;19.40;102777.00;;;;5067487;28;20195;-78
2022/05/08 08:01:11;;;;;;;5.15;1.23;;;;;19.40;102772.00;;;;5067244;28;20210;-78
2022/05/08 08:03:41;;;;;;;5.22;1.42;;;;;19.50;102769.00;;;;5062867;28;20190;-77
2022/05/08 08:06:09;;;;;;;3.63;1.13;;;;;19.60;102776.00;;;;5053231;28;20200;-78
2022/05/08 08:08:37;;;;;;;6.18;1.38;;;;;19.70;102775.00;;;;5048547;28;20233;-78
2022/05/08 08:11:06;;;;;;;3.00;1.38;;;;;19.80;102776.00;;;;5052182;28;20196;-78
2022/05/08 08:13:34;;;;;;;4.70;1.25;;;;;19.90;102780.00;;;;5056426;28;20199;-77
2022/05/08 08:16:03;;;;;;;4.93;1.25;;;;;20.10;102776.00;;;;5052406;28;20207;-76
2022/05/08 08:18:31;;;;;;;5.65;1.10;;;;;20.20;102780.00;;;;5051705;28;20199;-78
2022/05/08 08:20:58;;;;;;;2.85;0.95;;;;;20.30;102785.00;;;;5053486;28;20208;-77
2022/05/08 08:23:27;;;;;;;3.30;1.15;;;;;20.40;102786.00;;;;5046971;28;20264;-77
2022/05/08 08:25:55;;;;;;;7.25;1.38;;;;;20.50;102780.00;;;;5065176;28;20195;-78
2022/05/08 08:28:22;;;;;;;4.82;1.60;;;;;20.70;102786.00;;;;5053870;28;20224;-78
2022/05/08 08:30:50;;;;;;;5.45;1.25;;;;;20.80;102781.00;;;;5046781;28;20196;-78
2022/05/08 08:33:17;;;;;;;5.75;1.55;;;;;20.90;102779.00;;;;5047903;28;20208;-78
2022/05/08 08:35:44;;;;;;;2.67;1.20;;;;;21.00;102776.00;;;;5051405;28;20627;-77
2022/05/08 08:38:12;;;;;;;3.55;1.38;;;;;21.10;102770.00;;;;5058754;28;20203;-78
2022/05/08 08:40:42;;;;;;;5.15;1.27;;;;;21.20;102779.00;;;;5054266;28;20619;-78
2022/05/08 08:43:11;;;;;;;3.70;0.95;;;;;21.30;102783.00;;;;5054222;28;20202;-78
2022/05/08 08:48:29;;;;;;;7.63;1.00;;;;;21.50;102781.00;;;;5049107;28;20234;-78
2022/05/08 08:50:57;;;;;;;7.18;1.25;;;;;21.60;102780.00;;;;5058349;28;20199;-78
2022/05/08 08:53:26;;;;;;;4.47;1.20;;;;;21.60;102781.00;;;;5064348;28;20245;-78
2022/05/08 08:55:56;;;;;;;3.40;1.40;;;;;21.70;102785.00;;;;5064586;28;20206;-79
2022/05/08 08:58:23;;;;;;;4.38;1.30;;;;;21.90;102777.00;;;;5060401;28;20203;-79
2022/05/08 09:00:51;;;;;;;3.13;1.00;;;;;22.00;102779.00;;;;5053349;28;20218;-77
2022/05/08 09:03:25;;;;;;;5.20;1.40;;;;;22.10;102783.00;;;;5060561;28;20556;-78
2022/05/08 09:05:55;;;;;;;5.93;1.70;;;;;22.30;102787.00;;;;5053737;28;20195;-78
2022/05/08 09:08:27;;;;;;;4.45;1.40;;;;;22.30;102779.00;;;;5049548;28;20732;-79
2022/05/08 09:10:58;;;;;;;2.72;1.25;;;;;22.50;102783.00;;;;5050603;28;20207;-77
2022/05/08 09:13:26;;;;;;;7.70;1.17;;;;;22.60;102781.00;;;;5051263;28;20196;-78
2022/05/08 09:16:02;;;;;;;5.05;1.52;;;;;22.60;102774.00;;;;5061358;28;20573;-80
2022/05/08 09:18:29;;;;;;;3.60;1.13;;;;;22.80;102783.00;;;;5050200;28;20257;-77
2022/05/08 09:21:54;;;;;;;3.58;1.30;;;;;22.90;102775.00;;;;5051105;28;20278;-78
2022/05/08 09:24:07;;;;;;;3.45;1.23;;;;;23.00;102783.00;;;;5051730;28;20206;-78
2022/05/08 09:26:36;;;;;;;2.40;1.08;;;;;23.20;102773.00;;;;5058592;28;20203;-78
2022/05/08 09:29:04;;;;;;;3.80;1.20;;;;;23.30;102770.00;;;;5064271;28;20254;-80
2022/05/08 09:31:40;;;;;;;4.63;1.55;;;;;23.30;102766.00;;;;5057938;28;20206;-80
2022/05/08 09:34:08;;;;;;;4.60;1.67;;;;;23.50;102762.00;;;;5070031;28;20289;-77
2022/05/08 09:36:35;;;;;;;4.32;1.48;;;;;23.60;102766.00;;;;5052709;28;20235;-79
2022/05/08 09:39:06;;;;;;;5.85;1.20;;;;;23.70;102766.00;;;;5050960;28;20208;-80
2022/05/08 09:41:37;;;;;;;4.57;1.30;;;;;23.80;102765.00;;;;5054462;28;20280;-79
2022/05/08 09:44:15;;;;;;;4.20;1.17;;;;;23.90;102770.00;;;;5059106;28;20273;-79
2022/05/08 09:46:44;;;;;;;5.60;1.52;;;;;24.00;102763.00;;;;5055015;28;20228;-79
2022/05/08 09:49:13;;;;;;;4.47;1.35;;;;;24.10;102765.00;;;;5059877;28;20237;-79
2022/05/08 09:51:42;;;;;;;4.95;1.83;;;;;24.20;102770.00;;;;5066298;28;20645;-78
2022/05/08 09:54:11;;;;;;;4.22;1.70;;;;;24.30;102769.00;;;;5060712;28;20286;-78
2022/05/08 09:56:41;;;;;;;3.97;1.25;;;;;24.40;102765.00;;;;5050233;28;20286;-78
2022/05/08 09:59:10;;;;;;;3.65;1.00;;;;;24.50;102763.00;;;;5050684;28;20643;-79
2022/05/08 10:01:39;;;;;;;3.60;1.38;;;;;24.50;102772.00;;;;5059373;28;20199;-79
2022/05/08 10:04:06;;;;;;;5.90;2.03;;;;;24.60;102774.00;;;;5068082;28;20687;-79
2022/05/08 10:06:36;;;;;;;6.20;0.90;;;;;24.70;102767.00;;;;5062958;28;20203;-77
2022/05/08 10:14:39;;;;;;;3.15;1.38;;;;;24.80;102767.00;;;;5052312;28;20606;-75
2022/05/08 10:17:07;;;;;;;4.10;1.45;;;;;24.90;102770.00;;;;5050658;28;20192;-77
2022/05/08 10:20:00;;;;;;;2.90;1.13;;;;;24.80;102763.00;;;;5058502;28;20672;-76
2022/05/08 10:22:47;;;;;;;6.85;1.60;;;;;24.90;102755.00;;;;5049529;28;20222;-76
2022/05/08 10:25:17;;;;;;;2.30;0.77;;;;;25.10;102758.00;;;;5048380;28;20285;-76
2022/05/08 10:28:06;;;;;;;4.13;1.15;;;;;25.00;102755.00;;;;5050067;28;20192;-77
2022/05/08 10:30:34;;;;;;;3.65;1.40;;;;;25.20;102760.00;;;;5064940;28;20265;-77
2022/05/08 10:33:02;;;;;;;2.72;1.23;;;;;25.20;102752.00;;;;5051006;28;20201;-76
2022/05/08 10:35:31;;;;;;;3.17;0.93;;;;;25.30;102757.00;;;;5058354;28;20707;-77
2022/05/08 10:38:21;;;;;;;3.88;0.88;;;;;25.20;102743.00;;;;5051821;28;20204;-76
2022/05/08 10:40:48;;;;;;;4.53;1.20;;;;;25.40;102743.00;;;;5056601;28;20219;-78
2022/05/08 10:43:32;;;;;;;6.10;1.02;;;;;25.30;102739.00;;;;5050980;28;20203;-76
2022/05/08 10:46:21;;;;;;;3.50;1.10;;;;;25.30;102748.00;;;;5048348;28;20218;-76
2022/05/08 10:48:49;;;;;;;4.82;1.38;;;;;25.40;102738.00;;;;5057689;28;20469;-77
2022/05/08 10:51:16;;;;;;;4.47;1.13;;;;;25.40;102749.00;;;;5068648;28;20195;-75
2022/05/08 10:53:43;;;;;;;3.03;0.93;;;;;25.40;102744.00;;;;5060962;28;20199;-77
2022/05/08 10:56:13;;;;;;;2.33;1.00;;;;;25.40;102745.00;;;;5064175;28;20203;-75
2022/05/08 10:58:52;;;;;;;1.20;0.70;;;;;25.30;102741.00;;;;5048718;28;20297;-76
2022/05/08 11:01:19;;;;;;;3.20;1.02;;;;;25.40;102752.00;;;;5050138;28;20661;-76
2022/05/08 11:03:46;;;;;;;4.75;1.17;;;;;25.40;102746.00;;;;5052896;28;20220;-75
2022/05/08 11:06:21;;;;;;;1.75;1.08;;;;;25.40;102747.00;;;;5050879;28;20206;-77
2022/05/08 11:08:49;;;;;;;2.03;0.95;;;;;25.50;102749.00;;;;5049343;28;20329;-76
2022/05/08 11:11:16;;;;;;;3.15;0.88;;;;;25.50;102740.00;;;;5068400;28;20547;-76
2022/05/08 11:13:47;;;;;;;2.75;1.10;;;;;25.50;102739.00;;;;5071741;28;20554;-76
2022/05/08 11:16:29;;;;;;;4.65;1.38;;;;;25.60;102739.00;;;;5067192;28;20202;-76
2022/05/08 11:18:59;;;;;;;2.28;1.35;;;;;25.60;102741.00;;;;5060002;28;20572;-76
2022/05/08 11:21:27;;;;;;;4.32;0.93;;;;;25.60;102740.00;;;;5074129;28;20627;-76
2022/05/08 11:23:55;;;;;;;2.67;0.70;;;;;25.60;102744.00;;;;5059923;28;20245;-77
2022/05/08 11:26:29;;;;;;;3.10;1.25;;;;;25.60;102735.00;;;;5056142;28;20302;-75
2022/05/08 11:29:00;;;;;;;3.53;0.80;;;;;25.60;102734.00;;;;5058028;28;20289;-76
2022/05/08 11:31:28;;;;;;;3.10;1.45;;;;;25.70;102740.00;;;;5055922;28;20727;-77
2022/05/08 11:36:41;;;;;;;1.80;0.80;;;;;25.60;102722.00;;;;5050785;28;20312;-76
2022/05/08 11:39:13;;;;;;;1.25;0.50;;;;;25.60;102725.00;;;;5051531;28;20212;-76
2022/05/08 11:41:43;;;;;;;2.83;0.80;;;;;25.60;102720.00;;;;5050055;28;20200;-77
2022/05/08 11:44:23;;;;;;;1.98;1.08;;;;;25.50;102723.00;;;;5047663;28;20306;-76
2022/05/08 11:46:54;;;;;;;4.53;0.70;;;;;25.60;102732.00;;;;5047945;28;20216;-75
2022/05/08 11:49:23;;;;;;;2.65;1.02;;;;;25.60;102727.00;;;;5063577;28;20318;-75
2022/05/08 11:51:53;;;;;;;4.55;1.25;;;;;25.50;102725.00;;;;5052062;28;20200;-76
2022/05/08 11:54:23;;;;;;;1.88;0.90;;;;;25.50;102727.00;;;;5045955;28;20204;-76
2022/05/08 11:56:51;;;;;;;4.68;0.82;;;;;25.50;102722.00;;;;5046293;28;20199;-76
2022/05/08 11:59:24;;;;;;;1.33;0.80;;;;;25.50;102719.00;;;;5046994;28;20214;-76
2022/05/08 12:01:53;;;;;;;1.67;0.80;;;;;25.50;102724.00;;;;5058121;28;20199;-76
2022/05/08 12:04:28;;;;;;;1.20;0.80;;;;;25.40;102715.00;;;;5047862;28;20211;-75
2022/05/08 12:06:57;;;;;;;3.78;0.70;;;;;25.50;102713.00;;;;5052510;28;20190;-75
2022/05/08 12:09:24;;;;;;;5.07;1.08;;;;;25.50;102713.00;;;;5067847;28;20350;-75
2022/05/08 12:11:51;;;;;;;1.75;0.80;;;;;25.50;102705.00;;;;5055651;28;20207;-76
2022/05/08 12:14:30;;;;;;;1.55;0.98;;;;;25.40;102708.00;;;;5048181;28;20707;-77
2022/05/08 12:17:02;;;;;;;2.80;0.90;;;;;25.50;102706.00;;;;5058798;28;20194;-76
2022/05/08 12:19:30;;;;;;;2.05;0.70;;;;;25.50;102693.00;;;;5048995;28;20607;-77
2022/05/08 12:21:57;;;;;;;2.85;1.05;;;;;25.50;102703.00;;;;5049019;28;20199;-76
2022/05/08 12:24:25;;;;;;;2.08;0.90;;;;;25.50;102708.00;;;;5054971;28;20204;-78
2022/05/08 12:26:53;;;;;;;3.10;1.02;;;;;25.50;102703.00;;;;5060497;28;20203;-78
2022/05/08 12:29:23;;;;;;;2.03;0.98;;;;;25.40;102697.00;;;;5048721;28;20625;-77
2022/05/08 12:31:52;;;;;;;2.88;0.73;;;;;25.40;102704.00;;;;5048043;28;20253;-77
2022/05/08 12:34:20;;;;;;;3.10;0.90;;;;;25.40;102692.00;;;;5048702;28;20290;-77
2022/05/08 12:36:49;;;;;;;2.40;0.85;;;;;25.40;102692.00;;;;5050851;28;20219;-77
2022/05/08 12:39:19;;;;;;;2.38;0.75;;;;;25.40;102691.00;;;;5051880;28;20210;-77
2022/05/08 12:41:47;;;;;;;1.00;0.90;;;;;25.40;102693.00;;;;5056342;28;20188;-75
2022/05/08 12:44:15;;;;;;;2.53;1.10;;;;;25.30;102692.00;;;;5053893;28;20219;-76